createdAt,value
2022-11-22T00:00:01.998Z,36.40
2022-11-22T00:02:34.461Z,37.97
2022-11-22T00:05:04.494Z,37.20
2022-11-22T00:07:34.599Z,36.83
2022-11-22T00:10:04.608Z,39.05
2022-11-22T00:12:34.640Z,40.42
2022-11-22T00:15:04.638Z,39.42
2022-11-22T00:17:37.221Z,35.33
2022-11-22T00:20:10.629Z,38.28
2022-11-22T00:22:44.505Z,38.05
2022-11-22T00:25:16.009Z,37.05
2022-11-22T00:27:46.221Z,42.38
2022-11-22T00:30:16.308Z,39.15
2022-11-22T00:32:48.772Z,45.38
2022-11-22T00:35:18.759Z,39.28
2022-11-22T00:37:48.637Z,36.45
2022-11-22T00:40:19.253Z,38.08
2022-11-22T00:42:49.110Z,39.17
2022-11-22T00:45:19.129Z,38.15
2022-11-22T00:47:51.558Z,39.20
2022-11-22T00:50:21.680Z,35.47
2022-11-22T00:52:51.607Z,37.00
2022-11-22T00:55:21.457Z,38.63
2022-11-22T00:57:51.368Z,36.80
2022-11-22T01:00:22.014Z,32.67
2022-11-22T01:02:54.494Z,30.08
2022-11-22T01:05:24.401Z,34.22
2022-11-22T01:07:54.286Z,33.67
2022-11-22T01:10:24.199Z,38.30
2022-11-22T01:12:54.067Z,35.65
2022-11-22T01:15:24.151Z,34.08
2022-11-22T01:17:56.641Z,36.17
2022-11-22T01:20:26.625Z,34.38
2022-11-22T01:22:56.473Z,33.70
2022-11-22T01:25:26.357Z,36.08
2022-11-22T01:27:56.228Z,36.67
2022-11-22T01:30:26.171Z,33.08
2022-11-22T01:32:58.610Z,34.00
2022-11-22T01:35:28.503Z,34.33
2022-11-22T01:37:58.347Z,33.00
2022-11-22T01:40:28.240Z,33.47
2022-11-22T01:43:00.462Z,31.00
2022-11-22T01:45:51.434Z,32.65
2022-11-22T01:48:47.009Z,32.97
2022-11-22T01:51:25.663Z,32.58
2022-11-22T01:53:57.596Z,30.90
2022-11-22T01:56:29.415Z,30.88
2022-11-22T01:59:04.762Z,33.47
2022-11-22T02:01:35.348Z,31.80
2022-11-22T02:04:11.793Z,35.58
2022-11-22T02:06:49.874Z,31.13
2022-11-22T02:09:20.304Z,32.88
2022-11-22T02:11:53.831Z,32.50
2022-11-22T02:14:28.748Z,37.03
2022-11-22T02:16:58.684Z,32.85
2022-11-22T02:19:43.521Z,38.35
2022-11-22T02:22:31.336Z,36.72
2022-11-22T02:25:11.800Z,32.78
2022-11-22T02:27:44.493Z,34.70
2022-11-22T02:30:14.727Z,33.72
2022-11-22T02:32:44.818Z,36.38
2022-11-22T02:35:23.596Z,37.15
2022-11-22T02:37:59.956Z,32.35
2022-11-22T02:40:34.510Z,38.92
2022-11-22T02:43:12.779Z,37.72
2022-11-22T02:45:42.638Z,30.58
2022-11-22T02:48:14.819Z,35.17
2022-11-22T02:50:45.043Z,38.33
2022-11-22T02:53:16.401Z,32.25
2022-11-22T02:55:46.341Z,40.65
2022-11-22T02:58:18.816Z,37.22
2022-11-22T03:00:48.725Z,35.03
2022-11-22T03:03:18.859Z,32.10
2022-11-22T03:05:48.712Z,37.60
2022-11-22T03:08:18.600Z,37.92
2022-11-22T03:10:48.494Z,34.17
2022-11-22T03:13:21.122Z,34.53
2022-11-22T03:15:51.055Z,37.78
2022-11-22T03:18:20.907Z,39.50
2022-11-22T03:20:50.779Z,34.75
2022-11-22T03:23:20.897Z,37.08
2022-11-22T03:25:50.853Z,37.97
2022-11-22T03:28:23.313Z,36.67
2022-11-22T03:30:53.215Z,40.13
2022-11-22T03:33:23.129Z,43.10
2022-11-22T03:35:53.014Z,41.50
2022-11-22T03:38:22.863Z,42.78
2022-11-22T03:40:52.757Z,43.85
2022-11-22T03:43:26.565Z,40.28
2022-11-22T03:45:56.637Z,42.47
2022-11-22T03:48:26.526Z,42.97
2022-11-22T03:50:56.435Z,44.08
2022-11-22T03:53:26.287Z,41.67
2022-11-22T03:55:56.169Z,42.38
2022-11-22T03:58:28.643Z,39.72
2022-11-22T04:00:59.898Z,37.05
2022-11-22T04:03:30.040Z,43.80
2022-11-22T04:05:59.962Z,43.35
2022-11-22T04:08:30.261Z,47.13
2022-11-22T04:11:00.161Z,47.15
2022-11-22T04:13:44.902Z,49.67
2022-11-22T04:16:14.812Z,47.03
2022-11-22T04:18:44.776Z,43.05
2022-11-22T04:21:27.182Z,47.67
2022-11-22T04:24:09.395Z,34.63
2022-11-22T04:26:39.432Z,47.30
2022-11-22T04:29:11.943Z,48.92
2022-11-22T04:31:54.417Z,44.50
2022-11-22T04:34:24.275Z,44.45
2022-11-22T04:36:54.425Z,46.03
2022-11-22T04:39:24.387Z,42.45
2022-11-22T04:42:15.474Z,44.78
2022-11-22T04:44:45.957Z,50.80
2022-11-22T04:47:40.461Z,47.60
2022-11-22T04:50:24.667Z,45.20
2022-11-22T04:52:57.604Z,48.03
2022-11-22T04:55:27.899Z,49.53
2022-11-22T04:57:59.920Z,52.22
2022-11-22T05:00:34.515Z,50.05
2022-11-22T05:03:04.829Z,51.05
2022-11-22T05:05:39.155Z,49.22
2022-11-22T05:08:11.544Z,47.28
2022-11-22T05:10:54.556Z,50.92
2022-11-22T05:13:27.520Z,49.40
2022-11-22T05:16:01.272Z,52.80
2022-11-22T05:18:32.305Z,50.57
2022-11-22T05:21:02.307Z,49.58
2022-11-22T05:23:44.679Z,51.67
2022-11-22T05:26:14.907Z,50.60
2022-11-22T05:28:44.782Z,52.15
2022-11-22T05:31:27.945Z,48.25
2022-11-22T05:34:00.056Z,54.05
2022-11-22T05:36:30.168Z,51.08
2022-11-22T05:39:00.027Z,53.05
2022-11-22T05:41:29.953Z,54.58
2022-11-22T05:44:00.666Z,49.15
2022-11-22T05:46:33.979Z,47.17
2022-11-22T05:49:03.822Z,49.28
2022-11-22T05:51:35.200Z,54.42
2022-11-22T05:54:05.382Z,55.65
2022-11-22T05:56:35.445Z,51.03
2022-11-22T05:59:05.316Z,49.22
2022-11-22T06:01:37.741Z,39.22
2022-11-22T06:04:07.989Z,48.97
2022-11-22T06:06:37.870Z,47.40
2022-11-22T06:09:08.120Z,50.10
2022-11-22T06:11:38.635Z,55.55
2022-11-22T06:14:12.171Z,38.67
2022-11-22T06:16:44.670Z,53.15
2022-11-22T06:19:15.358Z,49.72
2022-11-22T06:21:45.423Z,51.63
2022-11-22T06:24:15.311Z,48.92
2022-11-22T06:26:45.185Z,49.70
2022-11-22T06:29:15.301Z,50.60
2022-11-22T06:31:47.711Z,51.70
2022-11-22T06:34:17.847Z,49.13
2022-11-22T06:36:47.735Z,51.13
2022-11-22T06:39:17.660Z,50.17
2022-11-22T06:41:47.528Z,53.60
2022-11-22T06:44:17.466Z,51.97
2022-11-22T06:46:50.396Z,48.13
2022-11-22T06:49:20.349Z,46.80
2022-11-22T06:51:50.238Z,49.85
2022-11-22T06:54:20.307Z,56.00
2022-11-22T06:56:50.288Z,52.80
2022-11-22T06:59:20.288Z,54.60
2022-11-22T07:01:52.770Z,47.78
2022-11-22T07:04:23.078Z,46.92
2022-11-22T07:06:53.464Z,60.90
2022-11-22T07:09:23.445Z,52.78
2022-11-22T07:11:53.343Z,51.65
2022-11-22T07:14:23.354Z,52.80
2022-11-22T07:16:55.820Z,47.22
2022-11-22T07:19:25.676Z,50.30
2022-11-22T07:21:55.503Z,54.08
2022-11-22T07:24:25.371Z,53.20
2022-11-22T07:26:55.303Z,50.85
2022-11-22T07:29:25.187Z,49.45
2022-11-22T07:31:57.669Z,55.72
2022-11-22T07:34:27.539Z,50.17
2022-11-22T07:37:00.626Z,54.60
2022-11-22T07:39:33.479Z,56.35
2022-11-22T07:42:03.315Z,55.35
2022-11-22T07:44:33.145Z,54.85
2022-11-22T07:47:05.830Z,50.58
2022-11-22T07:49:36.321Z,51.45
2022-11-22T07:52:06.227Z,50.05
2022-11-22T07:54:36.099Z,50.15
2022-11-22T07:57:06.127Z,56.97
2022-11-22T07:59:35.972Z,49.83
2022-11-22T08:02:08.404Z,53.67
2022-11-22T08:04:38.271Z,57.08
2022-11-22T08:07:08.325Z,57.55
2022-11-22T08:09:38.444Z,53.58
2022-11-22T08:12:09.042Z,52.50
2022-11-22T08:14:39.292Z,61.42
2022-11-22T08:17:12.252Z,55.85
2022-11-22T08:19:44.868Z,56.38
2022-11-22T08:22:14.741Z,58.42
2022-11-22T08:24:44.591Z,60.22
2022-11-22T08:27:14.494Z,56.78
2022-11-22T08:29:44.382Z,55.63
2022-11-22T08:32:16.884Z,60.72
2022-11-22T08:34:47.489Z,52.65
2022-11-22T08:37:17.471Z,57.47
2022-11-22T08:39:47.296Z,59.38
2022-11-22T08:42:17.147Z,58.28
2022-11-22T08:44:47.020Z,58.97
2022-11-22T08:47:19.626Z,60.83
2022-11-22T08:49:49.590Z,61.22
2022-11-22T08:52:19.409Z,63.03
2022-11-22T08:54:49.280Z,63.17
2022-11-22T08:57:19.158Z,63.85
2022-11-22T08:59:52.210Z,59.33
2022-11-22T09:02:24.639Z,61.03
2022-11-22T09:04:54.511Z,67.57
2022-11-22T09:10:14.192Z,58.28
2022-11-22T09:12:47.299Z,65.38
2022-11-22T09:15:17.519Z,61.35
2022-11-22T09:17:49.970Z,67.22
2022-11-22T09:20:20.639Z,70.75
2022-11-22T09:22:50.471Z,78.93
2022-11-22T09:25:20.510Z,72.53
2022-11-22T09:27:50.377Z,68.15
2022-11-22T09:30:21.645Z,63.45
2022-11-22T09:32:54.407Z,72.22
2022-11-22T09:35:24.330Z,76.35
2022-11-22T09:37:54.169Z,71.28
2022-11-22T09:40:24.125Z,70.85
2022-11-22T09:43:11.534Z,73.15
2022-11-22T09:46:05.790Z,72.80
2022-11-22T09:49:20.954Z,66.00
2022-11-22T09:51:57.485Z,74.72
2022-11-22T09:54:32.837Z,70.00
2022-11-22T09:57:07.089Z,68.45
2022-11-22T09:59:42.373Z,66.07
2022-11-22T10:02:20.577Z,65.55
2022-11-22T10:04:59.380Z,68.45
2022-11-22T10:07:36.812Z,66.47
2022-11-22T10:10:11.069Z,71.90
2022-11-22T10:12:46.758Z,66.18
2022-11-22T10:15:30.222Z,73.30
2022-11-22T10:18:04.618Z,72.20
2022-11-22T10:20:48.488Z,70.18
2022-11-22T10:23:22.379Z,63.00
2022-11-22T10:25:59.857Z,68.05
2022-11-22T10:28:37.958Z,64.72
2022-11-22T10:31:14.089Z,71.18
2022-11-22T10:34:01.539Z,63.13
2022-11-22T10:36:45.208Z,65.10
2022-11-22T10:39:34.914Z,68.25
2022-11-22T10:42:31.907Z,70.65
2022-11-22T10:45:09.443Z,70.93
2022-11-22T10:47:56.883Z,69.00
2022-11-22T10:50:33.279Z,74.40
2022-11-22T10:53:16.900Z,77.35
2022-11-22T10:55:58.099Z,75.03
2022-11-22T10:58:40.494Z,71.80
2022-11-22T11:01:20.239Z,68.90
2022-11-22T11:03:54.936Z,69.60
2022-11-22T11:06:57.007Z,73.72
2022-11-22T11:12:39.361Z,64.93
2022-11-22T11:15:20.959Z,74.32
2022-11-22T11:18:04.078Z,68.40
2022-11-22T11:20:39.728Z,61.90
2022-11-22T11:23:15.794Z,71.90
2022-11-22T11:25:52.550Z,60.38
2022-11-22T11:28:25.662Z,67.60
2022-11-22T11:30:59.465Z,65.03
2022-11-22T11:33:32.427Z,62.50
2022-11-22T11:36:09.203Z,61.92
2022-11-22T11:38:51.009Z,65.13
2022-11-22T11:41:27.540Z,62.63
2022-11-22T11:43:59.095Z,61.10
2022-11-22T11:46:31.117Z,66.55
2022-11-22T11:49:14.565Z,74.20
2022-11-22T11:51:46.868Z,61.75
2022-11-22T11:54:20.765Z,65.18
2022-11-22T11:56:55.090Z,63.00
2022-11-22T11:59:27.195Z,65.45
2022-11-22T12:02:01.642Z,56.00
2022-11-22T12:04:35.119Z,64.63
2022-11-22T12:07:19.538Z,61.45
2022-11-22T12:09:52.331Z,61.08
2022-11-22T12:12:42.138Z,61.70
2022-11-22T12:15:21.171Z,64.20
2022-11-22T12:17:59.118Z,67.45
2022-11-22T12:20:43.250Z,63.33
2022-11-22T12:23:21.722Z,64.55
2022-11-22T12:25:53.078Z,58.03
2022-11-22T12:28:28.327Z,66.00
2022-11-22T12:31:04.430Z,66.35
2022-11-22T12:33:38.294Z,63.72
2022-11-22T12:36:16.566Z,71.63
2022-11-22T12:38:48.844Z,65.97
2022-11-22T12:41:23.565Z,66.78
2022-11-22T12:46:33.518Z,54.33
2022-11-22T12:49:09.666Z,66.78
2022-11-22T12:51:58.195Z,65.57
2022-11-22T12:54:35.140Z,58.83
2022-11-22T12:57:13.453Z,70.53
2022-11-22T12:59:51.626Z,61.78
2022-11-22T13:02:34.402Z,69.57
2022-11-22T13:05:08.933Z,63.13
2022-11-22T13:07:59.051Z,57.05
2022-11-22T13:10:39.167Z,62.42
2022-11-22T13:13:20.350Z,57.72
2022-11-22T13:15:52.566Z,63.83
2022-11-22T13:18:24.026Z,57.67
2022-11-22T13:21:02.879Z,64.95
2022-11-22T13:24:07.953Z,66.07
2022-11-22T13:26:46.069Z,61.60
2022-11-22T13:29:24.350Z,63.80
2022-11-22T13:32:20.566Z,56.47
2022-11-22T13:35:10.912Z,55.80
2022-11-22T13:37:44.890Z,64.13
2022-11-22T13:40:30.059Z,64.13
2022-11-22T13:43:51.741Z,68.40
2022-11-22T13:47:00.419Z,58.35
2022-11-22T13:49:40.209Z,56.92
2022-11-22T13:52:34.951Z,57.58
2022-11-22T13:55:42.368Z,60.03
2022-11-22T13:58:56.466Z,60.10
2022-11-22T14:02:04.409Z,54.42
2022-11-22T14:04:46.447Z,63.15
2022-11-22T14:07:40.048Z,60.80
2022-11-22T14:10:37.727Z,62.33
2022-11-22T14:13:22.736Z,64.22
2022-11-22T14:16:22.405Z,63.90
2022-11-22T14:19:02.023Z,59.72
2022-11-22T14:21:52.849Z,59.95
2022-11-22T14:24:39.079Z,62.28
2022-11-22T14:27:26.947Z,63.05
2022-11-22T14:30:16.487Z,61.63
2022-11-22T14:32:55.483Z,63.97
2022-11-22T14:35:34.227Z,69.45
2022-11-22T14:38:30.595Z,59.40
2022-11-22T14:41:43.893Z,64.90
2022-11-22T14:44:20.343Z,64.10
2022-11-22T14:46:56.191Z,58.35
2022-11-22T14:49:40.210Z,65.03
2022-11-22T14:52:23.503Z,58.00
2022-11-22T14:54:59.528Z,57.80
2022-11-22T14:57:32.459Z,67.68
2022-11-22T15:00:20.698Z,63.13
2022-11-22T15:03:19.649Z,57.70
2022-11-22T15:09:11.063Z,59.50
2022-11-22T15:09:45.048Z,59.83
2022-11-22T15:12:49.992Z,61.38
2022-11-22T15:57:32.456Z,70.03
2022-11-22T16:00:02.843Z,68.72
2022-11-22T16:02:33.866Z,73.47
2022-11-22T16:06:06.460Z,80.88
2022-11-22T16:08:01.764Z,82.72
2022-11-22T16:10:38.761Z,78.55
2022-11-22T16:13:16.719Z,73.65
2022-11-22T16:15:48.310Z,66.40
2022-11-22T16:18:26.347Z,73.88
2022-11-22T16:21:03.355Z,75.43
2022-11-22T16:23:37.832Z,70.43
2022-11-22T16:26:25.051Z,80.63
2022-11-22T16:28:56.598Z,80.35
2022-11-22T16:31:28.616Z,90.55
2022-11-22T16:33:59.956Z,78.07
2022-11-22T16:36:32.596Z,67.65
2022-11-22T16:39:05.176Z,78.95
2022-11-22T16:41:37.162Z,77.05
2022-11-22T16:44:15.090Z,76.38
2022-11-22T16:46:45.538Z,76.40
2022-11-22T16:49:20.897Z,80.38
2022-11-22T16:51:51.842Z,72.80
2022-11-22T16:54:27.932Z,84.80
2022-11-22T16:56:57.863Z,75.75
2022-11-22T16:59:27.909Z,74.90
2022-11-22T17:01:57.893Z,74.10
2022-11-22T17:04:29.066Z,77.13
2022-11-22T17:06:59.296Z,79.57
2022-11-22T17:09:32.178Z,78.72
2022-11-22T17:12:02.391Z,68.00
2022-11-22T17:14:32.715Z,78.13
2022-11-22T17:17:05.502Z,74.95
2022-11-22T17:19:52.837Z,76.32
2022-11-22T17:22:23.892Z,79.22
2022-11-22T17:24:56.774Z,67.85
2022-11-22T17:27:26.729Z,73.55
2022-11-22T17:29:57.145Z,79.60
2022-11-22T17:32:27.143Z,71.90
2022-11-22T17:34:57.141Z,78.88
2022-11-22T17:37:29.577Z,70.53
2022-11-22T17:40:02.171Z,75.55
2022-11-22T17:42:34.534Z,72.80
2022-11-22T17:45:10.171Z,72.82
2022-11-22T17:47:40.135Z,76.13
2022-11-22T17:50:11.298Z,69.97
2022-11-22T17:52:41.319Z,79.32
2022-11-22T17:55:14.624Z,83.78
2022-11-22T17:57:44.789Z,74.68
2022-11-22T18:00:16.471Z,78.15
2022-11-22T18:02:46.786Z,78.30
2022-11-22T18:05:17.018Z,79.88
2022-11-22T18:07:47.061Z,77.47
2022-11-22T18:10:19.813Z,82.15
2022-11-22T18:13:05.915Z,80.05
2022-11-22T18:15:39.815Z,75.50
2022-11-22T18:18:27.043Z,77.88
2022-11-22T18:20:59.927Z,73.82
2022-11-22T18:23:35.197Z,85.85
2022-11-22T18:31:52.614Z,79.85
2022-11-22T18:34:23.072Z,81.78
2022-11-22T18:36:56.412Z,89.07
2022-11-22T18:39:30.459Z,73.43
2022-11-22T18:42:03.468Z,76.45
2022-11-22T18:44:33.371Z,81.45
2022-11-22T18:47:03.261Z,74.68
2022-11-22T18:49:33.652Z,83.82
2022-11-22T18:52:04.183Z,86.53
2022-11-22T18:54:36.832Z,81.38
2022-11-22T18:57:09.264Z,95.50
2022-11-22T18:59:39.165Z,71.30
2022-11-22T19:02:09.307Z,86.50
2022-11-22T19:04:39.476Z,83.53
2022-11-22T19:07:09.373Z,84.68
2022-11-22T19:09:39.258Z,84.60
2022-11-22T19:12:12.199Z,75.35
2022-11-22T19:14:42.073Z,77.47
2022-11-22T19:17:12.769Z,79.97
2022-11-22T19:19:42.611Z,83.03
2022-11-22T19:22:12.510Z,92.80
2022-11-22T19:24:44.829Z,83.28
2022-11-22T19:29:49.364Z,83.65
2022-11-22T19:32:19.340Z,79.20
2022-11-22T19:34:51.246Z,77.85
2022-11-22T19:37:21.147Z,83.70
2022-11-22T19:39:51.010Z,77.75
2022-11-22T19:42:23.444Z,87.30
2022-11-22T19:44:55.638Z,77.10
2022-11-22T19:47:26.755Z,86.65
2022-11-22T19:49:57.651Z,79.07
2022-11-22T19:52:27.545Z,83.80
2022-11-22T19:54:57.402Z,80.43
2022-11-22T19:57:29.827Z,79.70
2022-11-22T20:00:00.232Z,82.63
2022-11-22T20:02:30.293Z,80.35
2022-11-22T20:05:00.173Z,84.22
2022-11-22T20:07:32.584Z,86.68
2022-11-22T20:10:04.147Z,83.95
2022-11-22T20:12:36.611Z,78.97
2022-11-22T20:15:07.364Z,84.90
2022-11-22T20:17:37.236Z,77.10
2022-11-22T20:20:08.314Z,76.72
2022-11-22T20:22:38.148Z,78.20
2022-11-22T20:25:09.576Z,82.40
2022-11-22T20:27:42.077Z,81.78
2022-11-22T20:30:13.771Z,81.30
2022-11-22T20:32:43.909Z,78.05
2022-11-22T20:35:14.215Z,80.25
2022-11-22T20:37:44.051Z,84.03
2022-11-22T20:40:14.290Z,78.78
2022-11-22T20:42:46.734Z,80.35
2022-11-22T20:45:16.652Z,79.90
2022-11-22T20:47:46.504Z,85.72
2022-11-22T20:50:16.547Z,80.50
2022-11-22T20:52:46.398Z,83.38
2022-11-22T20:55:16.602Z,82.65
2022-11-22T20:57:49.062Z,78.75
2022-11-22T21:00:19.893Z,83.68
2022-11-22T21:02:49.748Z,82.90
2022-11-22T21:05:19.622Z,72.53
2022-11-22T21:07:49.509Z,75.45
2022-11-22T21:10:19.654Z,75.25
2022-11-22T21:12:52.108Z,73.43
2022-11-22T21:15:22.594Z,80.45
2022-11-22T21:18:23.067Z,84.35
2022-11-22T21:20:42.333Z,80.18
2022-11-22T21:23:12.170Z,78.28
2022-11-22T21:25:41.994Z,78.82
2022-11-22T21:28:14.416Z,82.82
2022-11-22T21:30:44.250Z,70.13
2022-11-22T21:33:14.107Z,80.82
2022-11-22T21:35:45.769Z,74.20
2022-11-22T21:38:16.377Z,75.30
2022-11-22T21:40:58.382Z,81.05
2022-11-22T21:43:37.971Z,80.22
2022-11-22T21:46:08.095Z,83.03
2022-11-22T21:48:37.993Z,86.40
2022-11-22T21:51:08.176Z,80.35
2022-11-22T21:53:38.022Z,77.72
2022-11-22T21:56:08.480Z,83.60
2022-11-22T21:58:40.946Z,82.47
2022-11-22T22:01:14.292Z,75.20
2022-11-22T22:03:44.420Z,70.07
2022-11-22T22:06:14.276Z,75.30
2022-11-22T22:08:44.184Z,73.22
2022-11-22T22:11:14.173Z,80.10
2022-11-22T22:13:46.861Z,75.90
2022-11-22T22:16:19.270Z,73.53
2022-11-22T22:18:49.654Z,80.00
2022-11-22T22:21:21.539Z,72.65
2022-11-22T22:23:51.386Z,77.40
2022-11-22T22:26:21.531Z,78.63
2022-11-22T22:28:55.965Z,71.95
2022-11-22T22:31:27.046Z,78.85
2022-11-22T22:33:58.891Z,89.60
2022-11-22T22:36:29.904Z,75.82
2022-11-22T22:38:59.769Z,77.07
2022-11-22T22:41:30.502Z,82.00
2022-11-22T22:44:02.966Z,73.20
2022-11-22T22:46:32.799Z,76.93
2022-11-22T22:49:02.848Z,82.75
2022-11-22T22:51:34.186Z,73.68
2022-11-22T22:54:04.132Z,78.95
2022-11-22T22:56:34.546Z,79.35
2022-11-22T22:59:07.952Z,84.78
2022-11-22T23:01:38.169Z,75.68
2022-11-22T23:04:08.811Z,78.93
2022-11-22T23:06:41.954Z,77.65
2022-11-22T23:09:14.059Z,77.20
2022-11-22T23:11:56.504Z,76.07
2022-11-22T23:14:30.873Z,69.20
2022-11-22T23:17:00.731Z,83.00
2022-11-22T23:19:30.843Z,83.00
2022-11-22T23:22:00.878Z,74.57
2022-11-22T23:24:33.577Z,70.88
2022-11-22T23:27:03.836Z,71.10
2022-11-22T23:29:36.528Z,84.38
2022-11-22T23:32:06.880Z,74.25
2022-11-22T23:34:36.761Z,84.45
2022-11-22T23:37:06.649Z,70.80
2022-11-22T23:39:36.508Z,79.25
2022-11-22T23:42:06.574Z,80.78
2022-11-22T23:44:38.971Z,89.10
2022-11-22T23:47:08.938Z,86.35
2022-11-22T23:49:38.749Z,79.03
2022-11-22T23:52:08.581Z,76.82
2022-11-22T23:54:38.426Z,79.53
2022-11-22T23:57:08.281Z,79.55
2022-11-22T23:59:40.706Z,77.07
